Terminal Aerodrome Forecast
Issued by NWS

Home | Current Version | Previous Version | Text Only | Print | Product List | Glossary On
Versions: 1 2 3 4 5 6 7 8 9 10 11 12 13 14 15
000
FTPA31 PHFO 220539
TAFMDY
TAF
PMDY 220539Z 2206/2306 16010KT P6SM VCSH SCT015 BKN035
     FM221500 16017KT P6SM VCSH SCT015 OVC025
     FM222100 19021KT 3SM SHRA BR VCTS SCT007 BKN015CB
     FM230300 22021KT 3SM SHRA BR VCTS SCT007 BKN015CB=

USA.gov is the U.S. government's official web portal to all federal, state and local government web resources and services.